createdAt,value
2018-05-13T00:00:27.775Z,8.10
2018-05-13T00:02:54.504Z,8.97
2018-05-13T00:05:21.251Z,9.07
2018-05-13T00:07:48.033Z,8.87
2018-05-13T00:10:14.788Z,8.30
2018-05-13T00:12:41.490Z,8.00
2018-05-13T00:15:08.486Z,8.13
2018-05-13T00:17:35.208Z,8.83
2018-05-13T00:20:01.985Z,8.43
2018-05-13T00:22:28.701Z,8.50
2018-05-13T00:24:55.381Z,10.30
2018-05-13T00:27:22.100Z,10.77
2018-05-13T00:29:48.849Z,9.63
2018-05-13T00:32:15.516Z,8.73
2018-05-13T00:34:42.313Z,9.30
2018-05-13T00:37:09.005Z,9.60
2018-05-13T00:39:35.709Z,10.10
2018-05-13T00:42:02.424Z,9.73
2018-05-13T00:44:29.109Z,9.10
2018-05-13T00:46:55.931Z,8.70
2018-05-13T00:49:22.729Z,8.50
2018-05-13T00:51:49.401Z,8.70
2018-05-13T00:54:21.846Z,8.27
2018-05-13T00:56:48.642Z,7.30
2018-05-13T00:59:15.631Z,7.70
2018-05-13T01:01:42.338Z,8.23
2018-05-13T01:04:09.151Z,7.60
2018-05-13T01:06:36.462Z,7.90
2018-05-13T01:09:03.253Z,7.70
2018-05-13T01:11:29.949Z,7.83
2018-05-13T01:13:56.629Z,7.97
2018-05-13T01:16:23.340Z,6.17
2018-05-13T01:18:50.049Z,7.40
2018-05-13T01:21:17.043Z,6.50
2018-05-13T01:23:43.732Z,6.73
2018-05-13T01:26:10.459Z,6.30
2018-05-13T01:28:37.196Z,6.30
2018-05-13T01:31:03.926Z,6.40
2018-05-13T01:33:30.726Z,6.30
2018-05-13T01:35:57.435Z,5.73
2018-05-13T01:38:24.156Z,4.93
2018-05-13T01:40:50.886Z,5.30
2018-05-13T01:43:17.572Z,5.27
2018-05-13T01:45:44.221Z,5.53
2018-05-13T01:48:10.873Z,5.30
2018-05-13T01:50:37.488Z,5.50
2018-05-13T01:53:04.398Z,6.13
2018-05-13T01:55:31.096Z,6.33
2018-05-13T01:57:58.297Z,6.70
2018-05-13T02:00:24.986Z,6.30
2018-05-13T02:02:51.693Z,6.83
2018-05-13T02:05:18.418Z,6.13
2018-05-13T02:07:45.066Z,7.17
2018-05-13T02:10:12.083Z,7.87
2018-05-13T02:12:38.754Z,8.20
2018-05-13T02:15:05.459Z,7.50
2018-05-13T02:17:32.150Z,7.83
2018-05-13T02:19:59.247Z,9.10
2018-05-13T02:22:25.924Z,9.70
2018-05-13T02:24:52.609Z,9.80
2018-05-13T02:27:19.333Z,9.97
2018-05-13T02:29:46.056Z,9.80
2018-05-13T02:32:12.761Z,10.87
2018-05-13T02:34:39.441Z,9.87
2018-05-13T02:37:06.141Z,10.60
2018-05-13T02:39:32.835Z,10.80
2018-05-13T02:41:59.550Z,10.13
2018-05-13T02:44:26.196Z,11.40
2018-05-13T02:46:52.862Z,10.60
2018-05-13T02:49:19.527Z,10.17
2018-05-13T02:51:46.180Z,10.57
2018-05-13T02:54:12.860Z,10.30
2018-05-13T02:56:39.571Z,10.73
2018-05-13T02:59:06.263Z,9.70
2018-05-13T03:01:32.936Z,10.53
2018-05-13T03:03:59.561Z,9.50
2018-05-13T03:06:26.210Z,10.67
2018-05-13T03:08:52.882Z,10.73
2018-05-13T03:11:19.546Z,11.00
2018-05-13T03:13:46.224Z,10.30
2018-05-13T03:16:12.886Z,10.20
2018-05-13T03:18:39.601Z,10.43
2018-05-13T03:21:06.273Z,10.73
2018-05-13T03:23:32.906Z,10.13
2018-05-13T03:25:59.555Z,9.90
2018-05-13T03:28:26.239Z,9.73
2018-05-13T03:30:52.905Z,10.20
2018-05-13T03:33:19.667Z,10.00
2018-05-13T03:35:46.336Z,8.97
2018-05-13T03:38:13.045Z,8.90
2018-05-13T03:40:39.700Z,8.90
2018-05-13T03:43:06.873Z,8.50
2018-05-13T03:45:33.538Z,9.10
2018-05-13T03:48:00.186Z,9.30
2018-05-13T03:50:26.828Z,10.13
2018-05-13T03:52:53.476Z,10.90
2018-05-13T03:55:20.218Z,9.07
2018-05-13T03:57:46.875Z,9.50
2018-05-13T04:00:13.613Z,8.60
2018-05-13T04:02:41.276Z,8.37
2018-05-13T04:05:07.987Z,10.37
2018-05-13T04:07:40.389Z,8.10
2018-05-13T04:10:12.877Z,8.43
2018-05-13T04:12:45.282Z,9.30
2018-05-13T04:15:17.893Z,8.73
2018-05-13T04:17:44.587Z,7.80
2018-05-13T04:20:11.261Z,9.10
2018-05-13T04:22:37.893Z,8.23
2018-05-13T04:25:04.595Z,8.60
2018-05-13T04:27:31.312Z,8.73
2018-05-13T04:29:58.019Z,8.40
2018-05-13T04:32:24.873Z,8.53
2018-05-13T04:34:51.519Z,9.53
2018-05-13T04:37:18.174Z,8.97
2018-05-13T04:39:44.861Z,7.97
2018-05-13T04:42:11.624Z,8.73
2018-05-13T04:44:38.371Z,8.73
2018-05-13T04:47:05.066Z,8.70
2018-05-13T04:49:31.759Z,8.03
2018-05-13T04:51:58.431Z,7.40
2018-05-13T04:54:25.070Z,7.37
2018-05-13T04:56:51.742Z,7.53
2018-05-13T04:59:18.410Z,8.07
2018-05-13T05:01:45.105Z,7.63
2018-05-13T05:04:11.788Z,8.13
2018-05-13T05:06:38.444Z,7.17
2018-05-13T05:09:05.067Z,8.43
2018-05-13T05:11:31.786Z,8.80
2018-05-13T05:13:58.439Z,8.23
2018-05-13T05:16:25.121Z,9.30
2018-05-13T05:18:52.153Z,8.93
2018-05-13T05:21:18.783Z,9.00
2018-05-13T05:23:45.393Z,9.50
2018-05-13T05:26:12.045Z,9.17
2018-05-13T05:28:38.670Z,9.53
2018-05-13T05:31:05.327Z,9.80
2018-05-13T05:33:32.045Z,10.73
2018-05-13T05:35:58.580Z,9.67
2018-05-13T05:38:25.227Z,10.00
2018-05-13T05:40:51.863Z,10.00
2018-05-13T05:43:18.502Z,11.13
2018-05-13T05:45:45.144Z,9.90
2018-05-13T05:48:11.797Z,9.73
2018-05-13T05:50:38.451Z,10.43
2018-05-13T05:53:05.286Z,10.70
2018-05-13T05:55:31.923Z,11.13
2018-05-13T05:57:58.593Z,12.13
2018-05-13T06:00:25.279Z,12.17
2018-05-13T06:02:51.921Z,11.40
2018-05-13T06:05:18.696Z,11.33
2018-05-13T06:07:45.326Z,10.73
2018-05-13T06:10:11.981Z,10.90
2018-05-13T06:12:38.675Z,11.20
2018-05-13T06:15:05.399Z,10.53
2018-05-13T06:17:32.283Z,11.10
2018-05-13T06:19:58.905Z,9.77
2018-05-13T06:22:25.525Z,9.90
2018-05-13T06:24:52.201Z,10.03
2018-05-13T06:27:18.832Z,10.83
2018-05-13T06:29:45.467Z,10.20
2018-05-13T06:32:12.112Z,10.80
2018-05-13T06:34:38.773Z,9.70
2018-05-13T06:37:05.451Z,10.57
2018-05-13T06:39:32.164Z,10.00
2018-05-13T06:41:58.814Z,9.57
2018-05-13T06:44:25.471Z,10.03
2018-05-13T06:46:52.103Z,9.80
2018-05-13T06:49:19.978Z,11.03
2018-05-13T06:51:46.719Z,9.60
2018-05-13T06:54:13.348Z,9.70
2018-05-13T06:56:40.017Z,10.10
2018-05-13T06:59:06.658Z,10.37
2018-05-13T07:01:33.316Z,9.77
2018-05-13T07:03:59.986Z,10.30
2018-05-13T07:06:26.673Z,11.30
2018-05-13T07:08:53.341Z,10.00
2018-05-13T07:11:19.962Z,8.67
2018-05-13T07:13:46.617Z,10.13
2018-05-13T07:16:13.287Z,10.30
2018-05-13T07:18:39.927Z,10.00
2018-05-13T07:21:06.563Z,9.73
2018-05-13T07:23:33.227Z,9.20
2018-05-13T07:25:59.916Z,9.93
2018-05-13T07:28:26.557Z,9.23
2018-05-13T07:30:53.191Z,9.57
2018-05-13T07:33:19.975Z,10.70
2018-05-13T07:35:46.615Z,10.97
2018-05-13T07:38:15.497Z,11.40
2018-05-13T07:40:42.277Z,11.80
2018-05-13T07:43:09.566Z,11.07
2018-05-13T07:45:36.242Z,11.17
2018-05-13T07:48:02.877Z,10.77
2018-05-13T07:50:29.560Z,10.47
2018-05-13T07:52:56.206Z,10.47
2018-05-13T07:55:22.835Z,11.10
2018-05-13T07:57:49.568Z,11.00
2018-05-13T08:00:16.208Z,11.10
2018-05-13T08:02:42.864Z,11.67
2018-05-13T08:05:09.534Z,11.90
2018-05-13T08:07:36.197Z,11.67
2018-05-13T08:10:02.903Z,10.57
2018-05-13T08:12:29.573Z,11.00
2018-05-13T08:14:56.279Z,10.00
2018-05-13T08:17:22.909Z,10.70
2018-05-13T08:19:49.554Z,9.70
2018-05-13T08:22:16.263Z,9.47
2018-05-13T08:24:42.934Z,11.00
2018-05-13T08:27:09.678Z,10.47
2018-05-13T08:29:36.317Z,10.80
2018-05-13T08:32:02.959Z,11.20
2018-05-13T08:34:29.620Z,11.07
2018-05-13T08:36:56.301Z,11.77
2018-05-13T08:39:22.936Z,10.30
2018-05-13T08:41:49.746Z,11.73
2018-05-13T08:44:16.413Z,11.23
2018-05-13T08:46:43.063Z,11.80
2018-05-13T08:49:09.740Z,11.97
2018-05-13T08:51:36.376Z,11.47
2018-05-13T08:54:03.007Z,10.60
2018-05-13T08:56:29.664Z,11.50
2018-05-13T08:58:56.361Z,10.53
2018-05-13T09:01:23.001Z,10.73
2018-05-13T09:03:49.689Z,11.50
2018-05-13T09:06:16.395Z,11.37
2018-05-13T09:08:43.070Z,10.53
2018-05-13T09:11:09.723Z,9.70
2018-05-13T09:13:36.405Z,8.80
2018-05-13T09:16:03.160Z,10.10
2018-05-13T09:18:29.866Z,9.10
2018-05-13T09:20:56.847Z,8.90
2018-05-13T09:23:23.527Z,7.70
2018-05-13T09:25:50.232Z,8.90
2018-05-13T09:28:17.831Z,8.40
2018-05-13T09:30:44.458Z,8.10
2018-05-13T09:33:11.096Z,8.10
2018-05-13T09:35:37.708Z,7.57
2018-05-13T09:38:04.360Z,7.77
2018-05-13T09:40:30.984Z,8.00
2018-05-13T09:42:57.650Z,7.73
2018-05-13T09:45:24.295Z,7.83
2018-05-13T09:47:50.976Z,10.43
2018-05-13T09:50:17.955Z,8.03
2018-05-13T09:52:44.538Z,7.90
2018-05-13T09:55:12.411Z,8.30
2018-05-13T09:57:39.109Z,8.77
2018-05-13T10:00:05.746Z,8.47
2018-05-13T10:02:32.523Z,9.00
2018-05-13T10:04:59.140Z,8.03
2018-05-13T10:07:25.790Z,9.47
2018-05-13T10:09:52.725Z,9.10
2018-05-13T10:12:19.372Z,9.70
2018-05-13T10:14:46.008Z,10.23
2018-05-13T10:17:12.739Z,11.20
2018-05-13T10:19:39.565Z,9.57
2018-05-13T10:22:06.824Z,9.37
2018-05-13T10:24:33.489Z,10.80
2018-05-13T10:27:00.164Z,9.70
2018-05-13T10:29:26.820Z,10.57
2018-05-13T10:31:53.471Z,10.30
2018-05-13T10:34:20.127Z,10.67
2018-05-13T10:36:46.969Z,10.17
2018-05-13T10:39:13.647Z,10.47
2018-05-13T10:41:40.302Z,10.10
2018-05-13T10:44:07.001Z,11.10
2018-05-13T10:46:33.679Z,10.27
2018-05-13T10:49:00.336Z,10.40
2018-05-13T10:51:27.143Z,10.73
2018-05-13T10:53:53.820Z,10.90
2018-05-13T10:56:20.487Z,10.87
2018-05-13T10:58:47.146Z,12.53
2018-05-13T11:01:13.797Z,11.07
2018-05-13T11:03:40.497Z,11.60
2018-05-13T11:06:07.167Z,12.63
2018-05-13T11:08:33.834Z,12.30
2018-05-13T11:11:00.504Z,12.67
2018-05-13T11:13:27.270Z,12.73
2018-05-13T11:15:54.940Z,11.50
2018-05-13T11:18:21.622Z,11.50
2018-05-13T11:20:48.308Z,10.60
2018-05-13T11:23:14.963Z,11.40
2018-05-13T11:25:41.628Z,11.90
2018-05-13T11:28:08.285Z,9.70
2018-05-13T11:30:35.003Z,10.80
2018-05-13T11:33:01.694Z,10.63
2018-05-13T11:35:28.394Z,11.03
2018-05-13T11:37:55.097Z,10.80
2018-05-13T11:40:22.689Z,9.67
2018-05-13T11:42:49.580Z,9.63
2018-05-13T11:45:16.299Z,11.20
2018-05-13T11:47:44.196Z,12.00
2018-05-13T11:50:10.990Z,10.40
2018-05-13T11:52:37.721Z,10.83
2018-05-13T11:55:04.556Z,9.90
2018-05-13T11:57:31.380Z,10.80
2018-05-13T11:59:58.218Z,9.87
2018-05-13T12:02:25.080Z,9.57
2018-05-13T12:04:51.856Z,9.60
2018-05-13T12:07:18.786Z,10.77
2018-05-13T12:09:45.695Z,11.50
2018-05-13T12:12:12.679Z,10.97
2018-05-13T12:14:39.535Z,11.33
2018-05-13T12:17:06.489Z,11.83
2018-05-13T12:19:33.196Z,10.33
2018-05-13T12:22:00.440Z,11.03
2018-05-13T12:24:27.190Z,11.20
2018-05-13T12:26:53.906Z,10.07
2018-05-13T12:29:21.491Z,10.10
2018-05-13T12:31:48.253Z,9.33
2018-05-13T12:34:14.940Z,11.30
2018-05-13T12:36:41.693Z,10.50
2018-05-13T12:39:08.465Z,10.40
2018-05-13T12:41:35.122Z,10.33
2018-05-13T12:44:01.865Z,9.20
2018-05-13T12:46:28.553Z,10.37
2018-05-13T12:48:55.251Z,9.30
2018-05-13T12:51:21.895Z,10.10
2018-05-13T12:53:49.365Z,10.90
2018-05-13T12:56:16.154Z,10.63
2018-05-13T12:58:42.914Z,10.10
2018-05-13T13:01:09.628Z,8.53
2018-05-13T13:03:36.550Z,9.97
2018-05-13T13:06:03.435Z,9.13
2018-05-13T13:08:30.213Z,9.47
2018-05-13T13:10:56.902Z,10.33
2018-05-13T13:13:23.592Z,9.30
2018-05-13T13:15:50.223Z,10.30
2018-05-13T13:18:17.127Z,10.10
2018-05-13T13:20:43.721Z,9.40
2018-05-13T13:23:10.405Z,9.77
2018-05-13T13:25:37.291Z,9.70
2018-05-13T13:28:04.004Z,10.50
2018-05-13T13:30:30.730Z,11.13
2018-05-13T13:32:57.330Z,9.60
2018-05-13T13:35:24.283Z,10.00
2018-05-13T13:37:50.950Z,9.77
2018-05-13T13:40:17.648Z,9.97
2018-05-13T13:42:44.318Z,9.60
2018-05-13T13:45:10.974Z,10.43
2018-05-13T13:47:37.677Z,10.77
2018-05-13T13:50:04.393Z,9.93
2018-05-13T13:52:31.035Z,10.67
2018-05-13T13:54:57.822Z,11.40
2018-05-13T13:57:24.480Z,9.77
2018-05-13T13:59:51.143Z,10.07
2018-05-13T14:02:17.806Z,11.10
2018-05-13T14:04:44.959Z,10.20
2018-05-13T14:07:11.641Z,9.80
2018-05-13T14:09:38.297Z,8.67
2018-05-13T14:12:05.184Z,9.47
2018-05-13T14:14:31.892Z,9.37
2018-05-13T14:16:58.613Z,10.10
2018-05-13T14:19:25.349Z,8.97
2018-05-13T14:21:52.685Z,9.90
2018-05-13T14:24:19.335Z,9.83
2018-05-13T14:26:46.052Z,10.97
2018-05-13T14:29:12.868Z,9.23
2018-05-13T14:31:39.475Z,8.97
2018-05-13T14:34:06.143Z,8.27
2018-05-13T14:36:32.820Z,9.20
2018-05-13T14:38:59.468Z,9.87
2018-05-13T14:41:26.127Z,9.90
2018-05-13T14:43:52.745Z,9.30
2018-05-13T14:46:19.419Z,9.63
2018-05-13T14:48:46.092Z,8.80
2018-05-13T14:51:12.781Z,9.10
2018-05-13T14:53:39.442Z,10.23
2018-05-13T14:56:06.130Z,9.80
2018-05-13T14:58:32.807Z,9.17
2018-05-13T15:00:59.459Z,9.17
2018-05-13T15:03:26.099Z,8.77
2018-05-13T15:05:52.775Z,9.30
2018-05-13T15:08:19.489Z,9.10
2018-05-13T15:10:46.121Z,9.03
2018-05-13T15:13:12.787Z,8.67
2018-05-13T15:15:39.467Z,8.50
2018-05-13T15:18:06.107Z,8.87
2018-05-13T15:20:32.798Z,8.60
2018-05-13T15:22:59.459Z,7.70
2018-05-13T15:25:26.122Z,8.80
2018-05-13T15:27:52.742Z,7.93
2018-05-13T15:30:19.422Z,8.67
2018-05-13T15:32:46.079Z,8.10
2018-05-13T15:35:12.720Z,8.23
2018-05-13T15:37:39.407Z,8.30
2018-05-13T15:40:06.605Z,8.73
2018-05-13T15:42:33.587Z,8.77
2018-05-13T15:45:00.188Z,7.37
2018-05-13T15:47:26.813Z,7.80
2018-05-13T15:49:53.575Z,7.57
2018-05-13T15:52:20.148Z,7.97
2018-05-13T15:54:46.822Z,15.30
2018-05-13T15:57:13.910Z,7.30
2018-05-13T15:59:40.560Z,7.47
2018-05-13T16:02:07.220Z,7.40
2018-05-13T16:04:33.887Z,8.03
2018-05-13T16:07:00.522Z,7.10
2018-05-13T16:09:27.217Z,7.50
2018-05-13T16:11:53.909Z,7.47
2018-05-13T16:14:20.613Z,8.70
2018-05-13T16:16:47.281Z,8.37
2018-05-13T16:19:13.977Z,8.83
2018-05-13T16:21:41.578Z,9.30
2018-05-13T16:24:08.281Z,9.03
2018-05-13T16:26:34.924Z,9.33
2018-05-13T16:29:01.569Z,8.27
2018-05-13T16:31:28.224Z,8.80
2018-05-13T16:33:54.969Z,8.87
2018-05-13T16:36:22.034Z,8.90
2018-05-13T16:38:49.627Z,8.63
2018-05-13T16:41:16.391Z,8.40
2018-05-13T16:43:43.073Z,7.97
2018-05-13T16:46:09.834Z,8.07
2018-05-13T16:48:36.566Z,8.50
2018-05-13T16:51:03.375Z,7.43
2018-05-13T16:53:30.035Z,7.20
2018-05-13T16:55:56.894Z,6.23
2018-05-13T16:58:24.397Z,6.70
2018-05-13T17:00:51.070Z,6.20
2018-05-13T17:03:17.706Z,6.47
2018-05-13T17:05:44.367Z,6.20
2018-05-13T17:08:11.197Z,6.50
2018-05-13T17:10:37.852Z,5.70
2018-05-13T17:13:04.512Z,5.83
2018-05-13T17:15:31.178Z,5.73
2018-05-13T17:17:57.826Z,6.27
2018-05-13T17:20:24.600Z,5.03
2018-05-13T17:22:51.293Z,5.90
2018-05-13T17:25:18.007Z,4.93
2018-05-13T17:27:44.892Z,4.93
2018-05-13T17:30:13.232Z,5.47
2018-05-13T17:32:40.160Z,5.03
2018-05-13T17:35:06.865Z,4.30
2018-05-13T17:37:33.617Z,5.20
2018-05-13T17:40:00.223Z,4.07
2018-05-13T17:42:26.886Z,4.17
2018-05-13T17:44:53.519Z,4.00
2018-05-13T17:47:20.189Z,5.07
2018-05-13T17:49:46.990Z,4.00
2018-05-13T17:52:13.563Z,4.20
2018-05-13T17:54:40.260Z,4.23
2018-05-13T17:57:07.034Z,4.87
2018-05-13T17:59:36.335Z,4.80
2018-05-13T18:02:03.618Z,4.87
2018-05-13T18:04:33.801Z,4.53
2018-05-13T18:07:00.591Z,4.67
2018-05-13T18:09:32.130Z,5.70
2018-05-13T18:12:00.306Z,5.47
2018-05-13T18:14:26.969Z,4.60
2018-05-13T18:16:53.602Z,5.20
2018-05-13T18:19:20.288Z,4.00
2018-05-13T18:21:46.953Z,4.70
2018-05-13T18:24:13.620Z,4.33
2018-05-13T18:26:40.271Z,4.77
2018-05-13T18:29:06.919Z,4.80
2018-05-13T18:31:33.597Z,4.70
2018-05-13T18:34:00.300Z,4.47
2018-05-13T18:36:27.095Z,4.70
2018-05-13T18:38:53.810Z,3.93
2018-05-13T18:41:20.439Z,4.13
2018-05-13T18:43:47.295Z,4.60
2018-05-13T18:46:14.141Z,5.17
2018-05-13T18:48:40.856Z,5.30
2018-05-13T18:51:09.715Z,4.43
2018-05-13T18:53:36.413Z,4.00
2018-05-13T18:56:03.116Z,5.00
2018-05-13T18:58:29.786Z,5.00
2018-05-13T19:00:56.541Z,5.30
2018-05-13T19:03:23.537Z,4.80
2018-05-13T19:05:50.203Z,5.07
2018-05-13T19:08:16.949Z,4.63
2018-05-13T19:10:43.586Z,5.40
2018-05-13T19:13:10.313Z,5.03
2018-05-13T19:15:36.999Z,5.50
2018-05-13T19:18:03.744Z,6.20
2018-05-13T19:20:30.435Z,5.30
2018-05-13T19:22:57.136Z,5.83
2018-05-13T19:25:23.918Z,5.10
2018-05-13T19:27:50.579Z,5.90
2018-05-13T19:30:18.209Z,5.37
2018-05-13T19:32:44.836Z,5.30
2018-05-13T19:35:11.483Z,4.50
2018-05-13T19:37:39.257Z,4.80
2018-05-13T19:40:05.979Z,5.00
2018-05-13T19:42:32.692Z,4.80
2018-05-13T19:44:59.384Z,4.90
2018-05-13T19:47:26.048Z,5.27
2018-05-13T19:49:53.433Z,5.30
2018-05-13T19:52:20.192Z,5.13
2018-05-13T19:54:46.855Z,5.47
2018-05-13T19:57:13.555Z,6.80
2018-05-13T19:59:40.529Z,6.47
2018-05-13T20:02:07.202Z,6.10
2018-05-13T20:04:34.590Z,5.60
2018-05-13T20:07:06.609Z,5.20
2018-05-13T20:09:33.420Z,6.90
2018-05-13T20:12:00.125Z,5.70
2018-05-13T20:14:26.805Z,6.00
2018-05-13T20:16:53.527Z,5.67
2018-05-13T20:19:20.205Z,6.17
2018-05-13T20:21:46.859Z,6.10
2018-05-13T20:24:13.587Z,5.80
2018-05-13T20:26:40.366Z,6.00
2018-05-13T20:29:07.125Z,6.00
2018-05-13T20:31:33.770Z,7.13
2018-05-13T20:34:00.472Z,5.93
2018-05-13T20:36:27.247Z,6.07
2018-05-13T20:38:53.949Z,7.50
2018-05-13T20:41:20.577Z,6.90
2018-05-13T20:43:47.258Z,6.27
2018-05-13T20:46:13.867Z,7.50
2018-05-13T20:48:40.598Z,7.00
2018-05-13T20:51:07.312Z,6.57
2018-05-13T20:53:33.996Z,6.90
2018-05-13T20:56:00.650Z,5.70
2018-05-13T20:58:27.296Z,5.40
2018-05-13T21:00:54.343Z,5.07
2018-05-13T21:03:20.964Z,4.97
2018-05-13T21:05:48.428Z,6.10
2018-05-13T21:08:15.123Z,6.03
2018-05-13T21:10:41.784Z,5.70
2018-05-13T21:13:08.453Z,7.30
2018-05-13T21:15:35.099Z,6.70
2018-05-13T21:18:01.735Z,6.30
2018-05-13T21:20:28.387Z,6.13
2018-05-13T21:22:55.209Z,6.70
2018-05-13T21:25:21.873Z,6.20
2018-05-13T21:27:48.724Z,6.70
2018-05-13T21:30:15.462Z,5.67
2018-05-13T21:32:42.098Z,5.90
2018-05-13T21:35:08.769Z,6.07
2018-05-13T21:37:35.467Z,6.00
2018-05-13T21:40:02.153Z,5.07
2018-05-13T21:42:28.796Z,5.90
2018-05-13T21:44:55.537Z,5.50
2018-05-13T21:47:22.174Z,6.00
2018-05-13T21:49:48.870Z,5.10
2018-05-13T21:52:15.618Z,4.70
2018-05-13T21:54:42.327Z,5.23
2018-05-13T21:57:08.962Z,4.33
2018-05-13T21:59:35.643Z,3.47
2018-05-13T22:02:02.329Z,4.13
2018-05-13T22:04:28.983Z,3.63
2018-05-13T22:06:55.628Z,3.50
2018-05-13T22:09:22.281Z,2.90
2018-05-13T22:11:48.958Z,2.93
2018-05-13T22:14:15.694Z,2.50
2018-05-13T22:16:42.317Z,2.20
2018-05-13T22:19:08.952Z,1.80
2018-05-13T22:21:35.572Z,1.97
2018-05-13T22:24:02.264Z,1.93
2018-05-13T22:26:29.056Z,1.90
2018-05-13T22:28:55.727Z,1.63
2018-05-13T22:31:22.361Z,1.40
2018-05-13T22:33:49.470Z,1.60
2018-05-13T22:36:16.096Z,1.70
2018-05-13T22:38:42.834Z,1.53
2018-05-13T22:41:09.452Z,1.77
2018-05-13T22:43:36.118Z,1.27
2018-05-13T22:46:02.753Z,1.27
2018-05-13T22:48:29.466Z,1.73
2018-05-13T22:50:56.115Z,1.90
2018-05-13T22:53:22.776Z,2.07
2018-05-13T22:55:49.413Z,2.50
2018-05-13T22:58:16.036Z,2.60
2018-05-13T23:00:42.783Z,2.50
2018-05-13T23:03:09.635Z,3.00
2018-05-13T23:05:36.306Z,3.17
2018-05-13T23:08:02.937Z,3.17
2018-05-13T23:10:29.598Z,3.40
2018-05-13T23:12:56.277Z,3.60
2018-05-13T23:15:22.926Z,3.70
2018-05-13T23:17:49.550Z,3.40
2018-05-13T23:20:16.185Z,4.20
2018-05-13T23:22:42.837Z,4.70
2018-05-13T23:25:09.503Z,4.83
2018-05-13T23:27:36.245Z,5.07
2018-05-13T23:30:02.958Z,6.33
2018-05-13T23:32:29.622Z,6.70
2018-05-13T23:34:56.338Z,6.07
2018-05-13T23:37:22.978Z,6.77
2018-05-13T23:39:49.630Z,6.83
2018-05-13T23:42:16.268Z,7.60
2018-05-13T23:44:42.918Z,9.13
2018-05-13T23:47:09.575Z,7.43
2018-05-13T23:49:36.200Z,8.50
2018-05-13T23:52:02.839Z,8.30
2018-05-13T23:54:34.460Z,8.03
2018-05-13T23:57:01.154Z,10.37
2018-05-13T23:59:27.819Z,8.47
